sensor_id;sensor_type;location;lat;lon;timestamp;temperature;humidity
70214;DHT22;60138;55.808;37.078;2023-01-15T00:02:03;0.03;69.87
70214;DHT22;60138;55.808;37.078;2023-01-15T00:04:29;0.03;69.84
70214;DHT22;60138;55.808;37.078;2023-01-15T00:06:54;0.04;69.94
70214;DHT22;60138;55.808;37.078;2023-01-15T00:09:20;0.02;69.87
70214;DHT22;60138;55.808;37.078;2023-01-15T00:11:45;0.02;69.80
70214;DHT22;60138;55.808;37.078;2023-01-15T00:14:11;0.01;69.71
70214;DHT22;60138;55.808;37.078;2023-01-15T00:16:37;0.01;69.65
70214;DHT22;60138;55.808;37.078;2023-01-15T00:19:02;-0.00;69.86
70214;DHT22;60138;55.808;37.078;2023-01-15T00:21:28;-0.00;69.61
70214;DHT22;60138;55.808;37.078;2023-01-15T00:23:54;-0.01;69.77
70214;DHT22;60138;55.808;37.078;2023-01-15T00:26:22;-0.01;69.93
70214;DHT22;60138;55.808;37.078;2023-01-15T00:28:51;-0.02;69.90
70214;DHT22;60138;55.808;37.078;2023-01-15T00:31:16;-0.02;69.91
70214;DHT22;60138;55.808;37.078;2023-01-15T00:33:42;-0.00;69.84
70214;DHT22;60138;55.808;37.078;2023-01-15T00:36:08;-0.01;69.55
70214;DHT22;60138;55.808;37.078;2023-01-15T00:38:33;-0.01;69.68
70214;DHT22;60138;55.808;37.078;2023-01-15T00:40:59;-0.02;69.82
70214;DHT22;60138;55.808;37.078;2023-01-15T00:43:24;-0.01;69.86
70214;DHT22;60138;55.808;37.078;2023-01-15T00:45:50;-0.01;69.85
70214;DHT22;60138;55.808;37.078;2023-01-15T00:48:16;0.02;69.83
70214;DHT22;60138;55.808;37.078;2023-01-15T00:50:41;0.02;69.66
70214;DHT22;60138;55.808;37.078;2023-01-15T00:53:07;0.01;69.71
70214;DHT22;60138;55.808;37.078;2023-01-15T00:55:33;-0.00;69.70
70214;DHT22;60138;55.808;37.078;2023-01-15T00:57:58;-0.00;69.68
70214;DHT22;60138;55.808;37.078;2023-01-15T01:00:24;-0.01;69.81
70214;DHT22;60138;55.808;37.078;2023-01-15T01:02:49;-0.00;69.83
70214;DHT22;60138;55.808;37.078;2023-01-15T01:05:15;-0.01;69.65
70214;DHT22;60138;55.808;37.078;2023-01-15T01:07:41;-0.02;69.44
70214;DHT22;60138;55.808;37.078;2023-01-15T01:10:07;-0.05;69.68
70214;DHT22;60138;55.808;37.078;2023-01-15T01:12:35;-0.03;69.61
70214;DHT22;60138;55.808;37.078;2023-01-15T01:15:01;-0.02;69.74
70214;DHT22;60138;55.808;37.078;2023-01-15T01:17:28;-0.01;69.78
70214;DHT22;60138;55.808;37.078;2023-01-15T01:19:54;-0.01;69.64
70214;DHT22;60138;55.808;37.078;2023-01-15T01:22:20;0.01;69.81
70214;DHT22;60138;55.808;37.078;2023-01-15T01:24:46;-0.00;69.58
70214;DHT22;60138;55.808;37.078;2023-01-15T01:27:11;-0.00;69.64
70214;DHT22;60138;55.808;37.078;2023-01-15T01:29:37;-0.01;69.69
70214;DHT22;60138;55.808;37.078;2023-01-15T01:32:03;0.02;69.74
70214;DHT22;60138;55.808;37.078;2023-01-15T01:34:29;0.02;69.58
70214;DHT22;60138;55.808;37.078;2023-01-15T01:36:54;-0.00;69.58
70214;DHT22;60138;55.808;37.078;2023-01-15T01:39:20;0.02;69.43
70214;DHT22;60138;55.808;37.078;2023-01-15T01:41:47;0.03;69.55
70214;DHT22;60138;55.808;37.078;2023-01-15T01:47:22;0.02;69.54
70214;DHT22;60138;55.808;37.078;2023-01-15T01:49:51;0.02;69.53
70214;DHT22;60138;55.808;37.078;2023-01-15T01:52:22;-0.02;69.55
70214;DHT22;60138;55.808;37.078;2023-01-15T01:54:50;-0.02;69.54
70214;DHT22;60138;55.808;37.078;2023-01-15T01:57:16;-0.02;69.66
70214;DHT22;60138;55.808;37.078;2023-01-15T01:59:42;-0.00;69.49
70214;DHT22;60138;55.808;37.078;2023-01-15T02:02:08;-0.01;69.59
70214;DHT22;60138;55.808;37.078;2023-01-15T02:04:35;-0.00;69.56
70214;DHT22;60138;55.808;37.078;2023-01-15T02:07:02;-0.01;69.58
70214;DHT22;60138;55.808;37.078;2023-01-15T02:09:28;0.01;69.54
70214;DHT22;60138;55.808;37.078;2023-01-15T02:11:57;-0.02;69.53
70214;DHT22;60138;55.808;37.078;2023-01-15T02:14:29;-0.00;69.62
70214;DHT22;60138;55.808;37.078;2023-01-15T02:17:32;-0.01;69.49
70214;DHT22;60138;55.808;37.078;2023-01-15T02:21:09;-0.02;69.60
70214;DHT22;60138;55.808;37.078;2023-01-15T02:25:33;-0.03;69.60
70214;DHT22;60138;55.808;37.078;2023-01-15T02:28:32;-0.02;69.62
70214;DHT22;60138;55.808;37.078;2023-01-15T02:31:06;-0.02;69.62
70214;DHT22;60138;55.808;37.078;2023-01-15T02:33:40;-0.05;69.53
70214;DHT22;60138;55.808;37.078;2023-01-15T02:36:10;-0.06;69.52
70214;DHT22;60138;55.808;37.078;2023-01-15T02:38:44;-0.07;69.64
70214;DHT22;60138;55.808;37.078;2023-01-15T02:41:14;-0.09;69.56
70214;DHT22;60138;55.808;37.078;2023-01-15T02:43:49;-0.11;69.72
70214;DHT22;60138;55.808;37.078;2023-01-15T02:46:17;-0.10;69.63
70214;DHT22;60138;55.808;37.078;2023-01-15T02:48:47;-0.09;70.00
70214;DHT22;60138;55.808;37.078;2023-01-15T02:51:24;-0.10;69.77
70214;DHT22;60138;55.808;37.078;2023-01-15T02:53:52;-0.09;69.87
70214;DHT22;60138;55.808;37.078;2023-01-15T02:56:23;-0.10;69.90
70214;DHT22;60138;55.808;37.078;2023-01-15T02:58:55;-0.09;70.04
70214;DHT22;60138;55.808;37.078;2023-01-15T03:01:27;-0.09;70.04
70214;DHT22;60138;55.808;37.078;2023-01-15T03:04:04;-0.06;70.07
70214;DHT22;60138;55.808;37.078;2023-01-15T03:06:36;-0.03;69.90
70214;DHT22;60138;55.808;37.078;2023-01-15T03:09:03;-0.06;70.03
70214;DHT22;60138;55.808;37.078;2023-01-15T03:11:34;-0.09;70.21
70214;DHT22;60138;55.808;37.078;2023-01-15T03:14:15;-0.12;70.53
70214;DHT22;60138;55.808;37.078;2023-01-15T03:16:51;-0.08;70.84
70214;DHT22;60138;55.808;37.078;2023-01-15T03:19:44;-0.08;70.77
70214;DHT22;60138;55.808;37.078;2023-01-15T03:22:29;-0.10;70.89
70214;DHT22;60138;55.808;37.078;2023-01-15T03:25:02;-0.13;71.06
70214;DHT22;60138;55.808;37.078;2023-01-15T03:27:33;-0.14;71.26
70214;DHT22;60138;55.808;37.078;2023-01-15T03:30:06;-0.16;71.35
70214;DHT22;60138;55.808;37.078;2023-01-15T03:32:32;-0.16;71.46
70214;DHT22;60138;55.808;37.078;2023-01-15T03:34:58;-0.15;71.52
70214;DHT22;60138;55.808;37.078;2023-01-15T03:37:24;-0.13;71.47
70214;DHT22;60138;55.808;37.078;2023-01-15T03:39:54;-0.10;71.35
70214;DHT22;60138;55.808;37.078;2023-01-15T03:47:57;-0.08;71.21
70214;DHT22;60138;55.808;37.078;2023-01-15T03:58:34;-0.11;71.22
70214;DHT22;60138;55.808;37.078;2023-01-15T04:01:09;-0.12;71.22
70214;DHT22;60138;55.808;37.078;2023-01-15T04:03:36;-0.10;71.32
70214;DHT22;60138;55.808;37.078;2023-01-15T04:06:04;-0.11;71.35
70214;DHT22;60138;55.808;37.078;2023-01-15T04:08:34;-0.11;71.32
70214;DHT22;60138;55.808;37.078;2023-01-15T04:11:02;-0.11;71.55
70214;DHT22;60138;55.808;37.078;2023-01-15T04:13:37;-0.10;71.67
70214;DHT22;60138;55.808;37.078;2023-01-15T04:16:08;-0.13;71.58
70214;DHT22;60138;55.808;37.078;2023-01-15T04:18:34;-0.13;71.74
70214;DHT22;60138;55.808;37.078;2023-01-15T04:21:00;-0.13;71.76
70214;DHT22;60138;55.808;37.078;2023-01-15T04:23:27;-0.12;71.84
70214;DHT22;60138;55.808;37.078;2023-01-15T04:25:53;-0.10;71.87
70214;DHT22;60138;55.808;37.078;2023-01-15T04:28:18;-0.10;71.79
70214;DHT22;60138;55.808;37.078;2023-01-15T04:30:44;-0.10;71.79
70214;DHT22;60138;55.808;37.078;2023-01-15T04:33:10;-0.09;71.84
70214;DHT22;60138;55.808;37.078;2023-01-15T04:35:36;-0.08;71.73
70214;DHT22;60138;55.808;37.078;2023-01-15T04:38:02;-0.09;71.67
70214;DHT22;60138;55.808;37.078;2023-01-15T04:40:28;-0.10;71.60
70214;DHT22;60138;55.808;37.078;2023-01-15T04:42:54;-0.09;71.55
70214;DHT22;60138;55.808;37.078;2023-01-15T04:45:20;-0.10;71.48
70214;DHT22;60138;55.808;37.078;2023-01-15T04:47:45;-0.14;71.61
70214;DHT22;60138;55.808;37.078;2023-01-15T04:50:11;-0.20;71.76
70214;DHT22;60138;55.808;37.078;2023-01-15T04:52:37;-0.17;71.78
70214;DHT22;60138;55.808;37.078;2023-01-15T04:55:03;-0.16;71.77
70214;DHT22;60138;55.808;37.078;2023-01-15T04:57:29;-0.19;71.84
70214;DHT22;60138;55.808;37.078;2023-01-15T04:59:55;-0.15;71.89
70214;DHT22;60138;55.808;37.078;2023-01-15T05:02:20;-0.16;71.86
70214;DHT22;60138;55.808;37.078;2023-01-15T05:04:46;-0.16;71.87
70214;DHT22;60138;55.808;37.078;2023-01-15T05:07:12;-0.15;71.90
70214;DHT22;60138;55.808;37.078;2023-01-15T05:09:37;-0.16;71.74
70214;DHT22;60138;55.808;37.078;2023-01-15T05:12:03;-0.14;71.87
70214;DHT22;60138;55.808;37.078;2023-01-15T05:14:29;-0.14;71.80
70214;DHT22;60138;55.808;37.078;2023-01-15T05:16:55;-0.13;71.82
70214;DHT22;60138;55.808;37.078;2023-01-15T05:19:20;-0.11;71.89
70214;DHT22;60138;55.808;37.078;2023-01-15T05:21:46;-0.14;71.81
70214;DHT22;60138;55.808;37.078;2023-01-15T05:24:14;-0.11;71.80
70214;DHT22;60138;55.808;37.078;2023-01-15T05:26:40;-0.11;71.77
70214;DHT22;60138;55.808;37.078;2023-01-15T05:29:06;-0.14;71.69
70214;DHT22;60138;55.808;37.078;2023-01-15T05:31:32;-0.16;71.74
70214;DHT22;60138;55.808;37.078;2023-01-15T05:33:58;-0.19;71.77
70214;DHT22;60138;55.808;37.078;2023-01-15T05:36:27;-0.16;71.87
70214;DHT22;60138;55.808;37.078;2023-01-15T05:38:54;-0.13;71.84
70214;DHT22;60138;55.808;37.078;2023-01-15T05:41:21;-0.15;71.84
70214;DHT22;60138;55.808;37.078;2023-01-15T05:43:47;-0.17;71.84
70214;DHT22;60138;55.808;37.078;2023-01-15T05:46:12;-0.17;71.86
70214;DHT22;60138;55.808;37.078;2023-01-15T05:48:40;-0.19;71.71
70214;DHT22;60138;55.808;37.078;2023-01-15T05:51:06;-0.17;71.71
70214;DHT22;60138;55.808;37.078;2023-01-15T05:53:31;-0.17;71.68
70214;DHT22;60138;55.808;37.078;2023-01-15T05:56:00;-0.14;71.69
70214;DHT22;60138;55.808;37.078;2023-01-15T05:58:25;-0.12;71.68
70214;DHT22;60138;55.808;37.078;2023-01-15T06:00:51;-0.14;71.77
70214;DHT22;60138;55.808;37.078;2023-01-15T06:03:17;-0.11;71.77
70214;DHT22;60138;55.808;37.078;2023-01-15T06:05:42;-0.09;71.77
70214;DHT22;60138;55.808;37.078;2023-01-15T06:08:08;-0.10;71.82
70214;DHT22;60138;55.808;37.078;2023-01-15T06:10:34;-0.06;72.02
70214;DHT22;60138;55.808;37.078;2023-01-15T06:12:59;-0.03;71.96
70214;DHT22;60138;55.808;37.078;2023-01-15T06:15:25;-0.00;71.80
70214;DHT22;60138;55.808;37.078;2023-01-15T06:17:50;-0.00;71.85
70214;DHT22;60138;55.808;37.078;2023-01-15T06:20:16;0.01;71.67
70214;DHT22;60138;55.808;37.078;2023-01-15T06:22:42;-0.01;71.65
70214;DHT22;60138;55.808;37.078;2023-01-15T06:25:10;-0.02;71.54
70214;DHT22;60138;55.808;37.078;2023-01-15T06:27:36;-0.02;71.64
70214;DHT22;60138;55.808;37.078;2023-01-15T06:30:02;-0.00;71.51
70214;DHT22;60138;55.808;37.078;2023-01-15T06:32:29;0.01;71.47
70214;DHT22;60138;55.808;37.078;2023-01-15T06:34:55;-0.02;71.38
70214;DHT22;60138;55.808;37.078;2023-01-15T06:37:20;-0.01;71.39
70214;DHT22;60138;55.808;37.078;2023-01-15T06:39:46;0.01;71.30
70214;DHT22;60138;55.808;37.078;2023-01-15T06:42:12;0.01;71.32
70214;DHT22;60138;55.808;37.078;2023-01-15T06:44:37;0.02;71.23
70214;DHT22;60138;55.808;37.078;2023-01-15T06:47:17;0.03;71.25
70214;DHT22;60138;55.808;37.078;2023-01-15T06:49:43;0.04;71.29
70214;DHT22;60138;55.808;37.078;2023-01-15T06:52:09;0.03;71.23
70214;DHT22;60138;55.808;37.078;2023-01-15T06:54:35;0.04;71.25
70214;DHT22;60138;55.808;37.078;2023-01-15T06:57:00;0.05;71.10
70214;DHT22;60138;55.808;37.078;2023-01-15T06:59:26;0.04;71.03
70214;DHT22;60138;55.808;37.078;2023-01-15T07:01:52;0.07;71.11
70214;DHT22;60138;55.808;37.078;2023-01-15T07:04:20;0.10;71.01
70214;DHT22;60138;55.808;37.078;2023-01-15T07:06:46;0.13;70.91
70214;DHT22;60138;55.808;37.078;2023-01-15T07:09:11;0.14;70.84
70214;DHT22;60138;55.808;37.078;2023-01-15T07:11:37;0.14;70.63
70214;DHT22;60138;55.808;37.078;2023-01-15T07:14:02;0.16;70.58
70214;DHT22;60138;55.808;37.078;2023-01-15T07:16:28;0.18;70.81
70214;DHT22;60138;55.808;37.078;2023-01-15T07:18:54;0.21;70.78
70214;DHT22;60138;55.808;37.078;2023-01-15T07:21:20;0.23;70.80
70214;DHT22;60138;55.808;37.078;2023-01-15T07:23:46;0.27;70.77
70214;DHT22;60138;55.808;37.078;2023-01-15T07:26:12;0.30;70.74
70214;DHT22;60138;55.808;37.078;2023-01-15T07:28:37;0.34;70.49
70214;DHT22;60138;55.808;37.078;2023-01-15T07:31:03;0.34;70.52
70214;DHT22;60138;55.808;37.078;2023-01-15T07:33:29;0.33;70.29
70214;DHT22;60138;55.808;37.078;2023-01-15T07:35:54;0.34;70.48
70214;DHT22;60138;55.808;37.078;2023-01-15T07:38:20;0.31;70.26
70214;DHT22;60138;55.808;37.078;2023-01-15T07:40:45;0.30;70.27
70214;DHT22;60138;55.808;37.078;2023-01-15T07:43:11;0.32;70.35
70214;DHT22;60138;55.808;37.078;2023-01-15T07:45:42;0.32;70.37
70214;DHT22;60138;55.808;37.078;2023-01-15T07:48:09;0.34;70.26
70214;DHT22;60138;55.808;37.078;2023-01-15T07:50:35;0.37;70.26
70214;DHT22;60138;55.808;37.078;2023-01-15T07:53:01;0.37;69.91
70214;DHT22;60138;55.808;37.078;2023-01-15T07:55:26;0.38;69.90
70214;DHT22;60138;55.808;37.078;2023-01-15T07:57:52;0.36;70.03
70214;DHT22;60138;55.808;37.078;2023-01-15T08:00:21;0.36;69.92
70214;DHT22;60138;55.808;37.078;2023-01-15T08:02:47;0.33;69.70
70214;DHT22;60138;55.808;37.078;2023-01-15T08:05:12;0.32;69.84
70214;DHT22;60138;55.808;37.078;2023-01-15T08:07:39;0.34;69.84
70214;DHT22;60138;55.808;37.078;2023-01-15T08:10:06;0.36;70.03
70214;DHT22;60138;55.808;37.078;2023-01-15T08:12:32;0.37;69.97
70214;DHT22;60138;55.808;37.078;2023-01-15T08:14:58;0.37;69.97
70214;DHT22;60138;55.808;37.078;2023-01-15T08:17:23;0.39;69.98
70214;DHT22;60138;55.808;37.078;2023-01-15T08:19:49;0.44;70.10
70214;DHT22;60138;55.808;37.078;2023-01-15T08:22:15;0.47;69.93
70214;DHT22;60138;55.808;37.078;2023-01-15T08:24:40;0.48;69.73
70214;DHT22;60138;55.808;37.078;2023-01-15T08:27:06;0.49;69.84
70214;DHT22;60138;55.808;37.078;2023-01-15T08:29:32;0.51;69.76
70214;DHT22;60138;55.808;37.078;2023-01-15T08:31:57;0.51;69.74
70214;DHT22;60138;55.808;37.078;2023-01-15T08:34:23;0.53;69.74
70214;DHT22;60138;55.808;37.078;2023-01-15T08:36:49;0.51;69.36
70214;DHT22;60138;55.808;37.078;2023-01-15T08:39:14;0.51;69.26
70214;DHT22;60138;55.808;37.078;2023-01-15T08:41:40;0.51;69.33
70214;DHT22;60138;55.808;37.078;2023-01-15T08:44:06;0.51;69.28
70214;DHT22;60138;55.808;37.078;2023-01-15T08:46:31;0.53;69.42
70214;DHT22;60138;55.808;37.078;2023-01-15T08:48:57;0.52;69.36
70214;DHT22;60138;55.808;37.078;2023-01-15T08:51:23;0.55;69.53
70214;DHT22;60138;55.808;37.078;2023-01-15T08:53:48;0.55;69.07
70214;DHT22;60138;55.808;37.078;2023-01-15T08:56:16;0.57;69.19
70214;DHT22;60138;55.808;37.078;2023-01-15T08:58:42;0.59;69.30
70214;DHT22;60138;55.808;37.078;2023-01-15T09:01:10;0.61;69.13
70214;DHT22;60138;55.808;37.078;2023-01-15T09:03:36;0.62;69.01
70214;DHT22;60138;55.808;37.078;2023-01-15T09:06:03;0.64;68.96
70214;DHT22;60138;55.808;37.078;2023-01-15T09:08:28;0.61;68.92
70214;DHT22;60138;55.808;37.078;2023-01-15T09:10:58;0.62;69.07
70214;DHT22;60138;55.808;37.078;2023-01-15T09:13:25;0.65;68.98
70214;DHT22;60138;55.808;37.078;2023-01-15T09:15:57;0.67;68.84
70214;DHT22;60138;55.808;37.078;2023-01-15T09:18:22;0.68;68.69
70214;DHT22;60138;55.808;37.078;2023-01-15T09:20:48;0.67;68.57
70214;DHT22;60138;55.808;37.078;2023-01-15T09:23:15;0.66;68.59
70214;DHT22;60138;55.808;37.078;2023-01-15T09:25:50;0.67;68.90
70214;DHT22;60138;55.808;37.078;2023-01-15T09:28:16;0.67;68.74
70214;DHT22;60138;55.808;37.078;2023-01-15T09:30:41;0.67;68.84
70214;DHT22;60138;55.808;37.078;2023-01-15T09:33:07;0.72;68.95
70214;DHT22;60138;55.808;37.078;2023-01-15T09:35:32;0.72;68.83
70214;DHT22;60138;55.808;37.078;2023-01-15T09:37:58;0.69;68.97
70214;DHT22;60138;55.808;37.078;2023-01-15T09:51:54;0.66;68.83
70214;DHT22;60138;55.808;37.078;2023-01-15T09:57:31;0.67;68.52
70214;DHT22;60138;55.808;37.078;2023-01-15T09:59:58;0.69;68.68
70214;DHT22;60138;55.808;37.078;2023-01-15T10:02:37;0.75;68.68
70214;DHT22;60138;55.808;37.078;2023-01-15T10:05:10;0.76;68.48
70214;DHT22;60138;55.808;37.078;2023-01-15T10:07:49;0.77;68.65
70214;DHT22;60138;55.808;37.078;2023-01-15T10:10:20;0.79;68.46
70214;DHT22;60138;55.808;37.078;2023-01-15T10:12:49;0.81;68.55
70214;DHT22;60138;55.808;37.078;2023-01-15T10:17:57;0.86;68.14
70214;DHT22;60138;55.808;37.078;2023-01-15T10:20:48;0.81;68.30
70214;DHT22;60138;55.808;37.078;2023-01-15T10:26:56;0.83;68.36
70214;DHT22;60138;55.808;37.078;2023-01-15T10:31:54;0.79;68.60
70214;DHT22;60138;55.808;37.078;2023-01-15T10:45:26;0.74;68.52
70214;DHT22;60138;55.808;37.078;2023-01-15T10:48:00;0.76;68.59
70214;DHT22;60138;55.808;37.078;2023-01-15T10:50:28;0.78;68.51
70214;DHT22;60138;55.808;37.078;2023-01-15T10:55:47;0.81;68.12
70214;DHT22;60138;55.808;37.078;2023-01-15T11:00:48;0.77;68.15
70214;DHT22;60138;55.808;37.078;2023-01-15T11:03:19;0.78;68.23
70214;DHT22;60138;55.808;37.078;2023-01-15T11:05:46;0.80;68.09
70214;DHT22;60138;55.808;37.078;2023-01-15T11:08:22;0.79;68.25
70214;DHT22;60138;55.808;37.078;2023-01-15T11:10:48;0.78;68.49
70214;DHT22;60138;55.808;37.078;2023-01-15T11:13:17;0.77;68.18
70214;DHT22;60138;55.808;37.078;2023-01-15T11:15:45;0.79;68.28
70214;DHT22;60138;55.808;37.078;2023-01-15T11:18:27;0.77;68.36
70214;DHT22;60138;55.808;37.078;2023-01-15T11:20:54;0.78;68.11
70214;DHT22;60138;55.808;37.078;2023-01-15T11:23:20;0.78;68.19
70214;DHT22;60138;55.808;37.078;2023-01-15T11:25:57;0.77;68.36
70214;DHT22;60138;55.808;37.078;2023-01-15T11:28:39;0.78;68.03
70214;DHT22;60138;55.808;37.078;2023-01-15T11:31:06;0.79;68.23
70214;DHT22;60138;55.808;37.078;2023-01-15T11:33:32;0.77;68.23
70214;DHT22;60138;55.808;37.078;2023-01-15T11:36:00;0.76;68.20
70214;DHT22;60138;55.808;37.078;2023-01-15T11:38:29;0.78;67.73
70214;DHT22;60138;55.808;37.078;2023-01-15T11:41:04;0.81;67.82
70214;DHT22;60138;55.808;37.078;2023-01-15T11:43:30;0.86;67.99
70214;DHT22;60138;55.808;37.078;2023-01-15T11:45:56;0.87;67.75
70214;DHT22;60138;55.808;37.078;2023-01-15T11:48:22;0.89;67.62
70214;DHT22;60138;55.808;37.078;2023-01-15T11:51:01;0.91;67.70
70214;DHT22;60138;55.808;37.078;2023-01-15T11:53:32;0.92;67.88
70214;DHT22;60138;55.808;37.078;2023-01-15T11:56:03;0.92;67.46
70214;DHT22;60138;55.808;37.078;2023-01-15T11:58:50;0.93;67.48
70214;DHT22;60138;55.808;37.078;2023-01-15T12:01:28;0.98;67.44
70214;DHT22;60138;55.808;37.078;2023-01-15T12:03:55;1.03;67.48
70214;DHT22;60138;55.808;37.078;2023-01-15T12:06:21;1.04;67.10
70214;DHT22;60138;55.808;37.078;2023-01-15T12:09:24;1.03;67.23
70214;DHT22;60138;55.808;37.078;2023-01-15T12:23:15;1.01;67.30
70214;DHT22;60138;55.808;37.078;2023-01-15T12:28:36;0.99;67.30
70214;DHT22;60138;55.808;37.078;2023-01-15T12:31:15;0.97;67.11
70214;DHT22;60138;55.808;37.078;2023-01-15T12:33:46;0.98;67.33
70214;DHT22;60138;55.808;37.078;2023-01-15T12:36:18;0.98;67.13
70214;DHT22;60138;55.808;37.078;2023-01-15T12:41:26;0.94;67.37
70214;DHT22;60138;55.808;37.078;2023-01-15T12:43:56;0.90;67.37
70214;DHT22;60138;55.808;37.078;2023-01-15T12:46:26;0.88;67.61
70214;DHT22;60138;55.808;37.078;2023-01-15T12:52:34;0.78;67.37
70214;DHT22;60138;55.808;37.078;2023-01-15T12:55:15;0.76;67.31
70214;DHT22;60138;55.808;37.078;2023-01-15T12:57:54;0.73;67.22
70214;DHT22;60138;55.808;37.078;2023-01-15T13:00:28;0.72;67.27
70214;DHT22;60138;55.808;37.078;2023-01-15T13:05:56;0.67;67.39
70214;DHT22;60138;55.808;37.078;2023-01-15T13:10:51;0.66;67.43
70214;DHT22;60138;55.808;37.078;2023-01-15T13:13:22;0.64;67.59
70214;DHT22;60138;55.808;37.078;2023-01-15T13:21:47;0.58;67.49
70214;DHT22;60138;55.808;37.078;2023-01-15T13:32:28;0.50;67.70
70214;DHT22;60138;55.808;37.078;2023-01-15T13:37:49;0.48;67.40
70214;DHT22;60138;55.808;37.078;2023-01-15T13:42:49;0.48;67.49
70214;DHT22;60138;55.808;37.078;2023-01-15T13:47:46;0.47;67.61
70214;DHT22;60138;55.808;37.078;2023-01-15T13:50:26;0.50;67.67
70214;DHT22;60138;55.808;37.078;2023-01-15T13:53:00;0.52;67.59
70214;DHT22;60138;55.808;37.078;2023-01-15T13:55:35;0.51;67.52
70214;DHT22;60138;55.808;37.078;2023-01-15T13:58:02;0.50;67.28
70214;DHT22;60138;55.808;37.078;2023-01-15T14:00:40;0.48;67.60
70214;DHT22;60138;55.808;37.078;2023-01-15T14:03:31;0.48;67.62
70214;DHT22;60138;55.808;37.078;2023-01-15T14:06:07;0.45;67.43
70214;DHT22;60138;55.808;37.078;2023-01-15T14:08:42;0.44;67.46
70214;DHT22;60138;55.808;37.078;2023-01-15T14:16:46;0.39;67.60
70214;DHT22;60138;55.808;37.078;2023-01-15T14:36:17;0.33;67.84
70214;DHT22;60138;55.808;37.078;2023-01-15T14:38:54;0.32;68.04
70214;DHT22;60138;55.808;37.078;2023-01-15T14:41:32;0.32;68.17
70214;DHT22;60138;55.808;37.078;2023-01-15T14:44:01;0.29;67.91
70214;DHT22;60138;55.808;37.078;2023-01-15T14:46:32;0.29;68.16
70214;DHT22;60138;55.808;37.078;2023-01-15T14:49:00;0.28;68.22
70214;DHT22;60138;55.808;37.078;2023-01-15T14:51:33;0.27;68.08
70214;DHT22;60138;55.808;37.078;2023-01-15T14:54:07;0.27;67.92
70214;DHT22;60138;55.808;37.078;2023-01-15T14:56:36;0.24;67.85
70214;DHT22;60138;55.808;37.078;2023-01-15T15:02:05;0.21;67.84
70214;DHT22;60138;55.808;37.078;2023-01-15T15:04:53;0.20;67.94
70214;DHT22;60138;55.808;37.078;2023-01-15T15:07:21;0.20;67.88
70214;DHT22;60138;55.808;37.078;2023-01-15T15:09:53;0.18;67.57
70214;DHT22;60138;55.808;37.078;2023-01-15T15:12:40;0.19;67.77
70214;DHT22;60138;55.808;37.078;2023-01-15T15:15:56;0.16;67.81
70214;DHT22;60138;55.808;37.078;2023-01-15T15:18:26;0.16;68.10
70214;DHT22;60138;55.808;37.078;2023-01-15T15:23:41;0.15;67.51
70214;DHT22;60138;55.808;37.078;2023-01-15T15:26:27;0.16;67.69
70214;DHT22;60138;55.808;37.078;2023-01-15T15:28:57;0.20;67.33
70214;DHT22;60138;55.808;37.078;2023-01-15T15:31:24;0.16;67.43
70214;DHT22;60138;55.808;37.078;2023-01-15T15:33:49;0.18;67.72
70214;DHT22;60138;55.808;37.078;2023-01-15T15:36:15;0.15;66.85
70214;DHT22;60138;55.808;37.078;2023-01-15T15:38:54;0.13;67.46
70214;DHT22;60138;55.808;37.078;2023-01-15T15:41:21;0.13;68.00
70214;DHT22;60138;55.808;37.078;2023-01-15T15:43:55;0.13;67.73
70214;DHT22;60138;55.808;37.078;2023-01-15T15:46:25;0.12;67.82
70214;DHT22;60138;55.808;37.078;2023-01-15T15:48:56;0.10;67.54
70214;DHT22;60138;55.808;37.078;2023-01-15T15:53:50;0.08;67.75
70214;DHT22;60138;55.808;37.078;2023-01-15T15:56:16;0.07;67.73
70214;DHT22;60138;55.808;37.078;2023-01-15T15:58:42;0.03;67.87
70214;DHT22;60138;55.808;37.078;2023-01-15T16:01:12;0.04;67.87
70214;DHT22;60138;55.808;37.078;2023-01-15T16:03:45;0.02;67.86
70214;DHT22;60138;55.808;37.078;2023-01-15T16:06:19;0.02;67.90
70214;DHT22;60138;55.808;37.078;2023-01-15T16:08:56;0.02;67.81
70214;DHT22;60138;55.808;37.078;2023-01-15T16:11:23;-0.01;67.55
70214;DHT22;60138;55.808;37.078;2023-01-15T16:13:51;-0.03;67.90
70214;DHT22;60138;55.808;37.078;2023-01-15T16:16:18;-0.06;67.57
70214;DHT22;60138;55.808;37.078;2023-01-15T16:18:50;-0.07;68.01
70214;DHT22;60138;55.808;37.078;2023-01-15T16:21:19;-0.09;67.69
70214;DHT22;60138;55.808;37.078;2023-01-15T16:24:04;-0.09;67.37
70214;DHT22;60138;55.808;37.078;2023-01-15T16:26:40;-0.08;67.47
70214;DHT22;60138;55.808;37.078;2023-01-15T16:29:22;-0.09;67.52
70214;DHT22;60138;55.808;37.078;2023-01-15T16:31:49;-0.07;67.62
70214;DHT22;60138;55.808;37.078;2023-01-15T16:34:29;-0.05;67.57
70214;DHT22;60138;55.808;37.078;2023-01-15T16:36:57;-0.05;67.39
70214;DHT22;60138;55.808;37.078;2023-01-15T16:39:37;-0.01;67.35
70214;DHT22;60138;55.808;37.078;2023-01-15T16:42:04;-0.01;67.06
70214;DHT22;60138;55.808;37.078;2023-01-15T16:44:45;0.02;67.46
70214;DHT22;60138;55.808;37.078;2023-01-15T16:47:23;0.01;66.95
70214;DHT22;60138;55.808;37.078;2023-01-15T16:49:49;0.01;67.31
70214;DHT22;60138;55.808;37.078;2023-01-15T16:52:35;-0.00;67.61
70214;DHT22;60138;55.808;37.078;2023-01-15T17:00:38;-0.02;66.99
70214;DHT22;60138;55.808;37.078;2023-01-15T17:03:24;-0.03;66.62
70214;DHT22;60138;55.808;37.078;2023-01-15T17:05:56;-0.02;66.85
70214;DHT22;60138;55.808;37.078;2023-01-15T17:08:29;-0.02;66.70
70214;DHT22;60138;55.808;37.078;2023-01-15T17:11:00;-0.00;66.72
70214;DHT22;60138;55.808;37.078;2023-01-15T17:13:36;-0.03;66.71
70214;DHT22;60138;55.808;37.078;2023-01-15T17:16:19;-0.05;67.04
70214;DHT22;60138;55.808;37.078;2023-01-15T17:18:46;-0.05;66.80
70214;DHT22;60138;55.808;37.078;2023-01-15T17:21:21;-0.02;66.98
70214;DHT22;60138;55.808;37.078;2023-01-15T17:23:48;-0.05;66.27
70214;DHT22;60138;55.808;37.078;2023-01-15T17:26:24;-0.06;66.36
70214;DHT22;60138;55.808;37.078;2023-01-15T17:28:51;-0.08;66.24
70214;DHT22;60138;55.808;37.078;2023-01-15T17:31:29;-0.10;66.46
70214;DHT22;60138;55.808;37.078;2023-01-15T17:33:56;-0.09;66.62
70214;DHT22;60138;55.808;37.078;2023-01-15T17:36:22;-0.09;66.58
70214;DHT22;60138;55.808;37.078;2023-01-15T17:38:48;-0.09;66.72
70214;DHT22;60138;55.808;37.078;2023-01-15T17:41:16;-0.12;66.68
70214;DHT22;60138;55.808;37.078;2023-01-15T17:47:27;-0.14;67.21
70214;DHT22;60138;55.808;37.078;2023-01-15T17:50:10;-0.17;66.43
70214;DHT22;60138;55.808;37.078;2023-01-15T17:52:36;-0.20;66.95
70214;DHT22;60138;55.808;37.078;2023-01-15T17:55:02;-0.19;66.75
70214;DHT22;60138;55.808;37.078;2023-01-15T17:57:28;-0.16;66.96
70214;DHT22;60138;55.808;37.078;2023-01-15T17:59:54;-0.17;67.21
70214;DHT22;60138;55.808;37.078;2023-01-15T18:02:20;-0.22;66.98
70214;DHT22;60138;55.808;37.078;2023-01-15T18:04:51;-0.21;66.90
70214;DHT22;60138;55.808;37.078;2023-01-15T18:07:21;-0.21;66.84